KATL

Hartsfield - Jackson Atlanta International Airport

Atlanta, Georgia, USA
METAR KATL 230952Z 03006KT 10SM BKN043 BKN200 BKN250 13/04 A3021 RMK AO2 SLP229 T01280044
Observed Flight Rules
Oct-23 @ 09:52 UTC (43 minutes ago) Visual Flight Rules
Wind Visibility Clouds
30° at 6 knots 10 miles
  • Broken at 4,300' AGL
  • Broken at 20,000' AGL
  • Broken at 25,000' AGL
Temperatures Readings
Current 13°C / 55°F
Dewpoint 4°C / 39°F
Humidity 55%
Altimeter 30.21" Hg
Pressure 1022.9 hPa
Elevation 296
METAR KATL 230952Z 03006KT 10SM BKN043 BKN200 BKN250 13/04 A3021 RMK AO2 SLP229 T01280044
Observed Flight Rules
Oct-23 @ 09:52 UTC
(43 minutes ago)
VFR
Wind Visibility
30° at 6 knots 10 miles
Clouds
  • Broken at 4,300' AGL
  • Broken at 20,000' AGL
  • Broken at 25,000' AGL
Temperature Dewpoint
13°C / 55°F 4°C / 39°F
Humidity Altimeter Pressure
55% 30.21" Hg 1022.9 hPa